createdAt,value
2023-05-16T00:02:20.178Z,52.33
2023-05-16T00:04:48.724Z,52.43
2023-05-16T00:07:17.021Z,52.42
2023-05-16T00:09:45.261Z,52.73
2023-05-16T00:12:13.507Z,52.81
2023-05-16T00:14:43.209Z,52.69
2023-05-16T00:17:12.571Z,52.65
2023-05-16T00:19:42.323Z,52.78
2023-05-16T00:22:11.533Z,52.83
2023-05-16T00:24:39.909Z,52.88
2023-05-16T00:27:08.123Z,52.90
2023-05-16T00:29:36.663Z,52.95
2023-05-16T00:32:08.876Z,52.88
2023-05-16T00:34:37.582Z,52.82
2023-05-16T00:37:06.321Z,52.78
2023-05-16T00:39:34.548Z,52.91
2023-05-16T00:42:02.946Z,52.97
2023-05-16T00:44:33.031Z,53.09
2023-05-16T00:47:02.813Z,53.00
2023-05-16T00:49:32.777Z,52.83
2023-05-16T00:52:01.371Z,52.72
2023-05-16T00:54:31.371Z,52.63
2023-05-16T00:56:59.767Z,52.65
2023-05-16T00:59:28.796Z,52.66
2023-05-16T01:01:57.124Z,52.60
2023-05-16T01:04:26.694Z,52.58
2023-05-16T01:06:57.945Z,52.54
2023-05-16T01:09:26.324Z,52.65
2023-05-16T01:12:03.294Z,52.63
2023-05-16T01:14:42.777Z,52.45
2023-05-16T01:17:21.608Z,52.38
2023-05-16T01:20:06.499Z,52.17
2023-05-16T01:22:49.049Z,52.14
2023-05-16T01:25:28.435Z,51.90
2023-05-16T01:27:59.624Z,52.16
2023-05-16T01:30:27.964Z,52.28
2023-05-16T01:32:56.266Z,52.36
2023-05-16T01:35:26.583Z,52.29
2023-05-16T01:38:06.125Z,52.09
2023-05-16T01:40:42.420Z,52.04
2023-05-16T01:43:15.528Z,52.17
2023-05-16T01:45:52.352Z,52.11
2023-05-16T01:48:24.531Z,52.08
2023-05-16T01:50:56.184Z,52.11
2023-05-16T01:53:29.506Z,51.92
2023-05-16T01:55:59.608Z,52.35
2023-05-16T01:58:33.065Z,52.24
2023-05-16T02:01:03.370Z,52.57
2023-05-16T02:03:31.791Z,52.58
2023-05-16T02:06:00.130Z,52.60
2023-05-16T02:08:29.582Z,52.70
2023-05-16T02:10:57.867Z,52.70
2023-05-16T02:13:26.129Z,52.82
2023-05-16T02:15:55.822Z,53.07
2023-05-16T02:18:24.767Z,53.20
2023-05-16T02:20:53.233Z,53.17
2023-05-16T02:23:21.678Z,53.06
2023-05-16T02:25:50.533Z,53.14
2023-05-16T02:28:18.807Z,53.15
2023-05-16T02:30:47.106Z,53.06
2023-05-16T02:33:16.811Z,52.97
2023-05-16T02:35:45.097Z,52.89
2023-05-16T02:38:17.567Z,52.87
2023-05-16T02:40:46.206Z,52.91
2023-05-16T02:43:14.406Z,52.82
2023-05-16T02:45:44.178Z,52.74
2023-05-16T02:48:12.949Z,52.75
2023-05-16T02:50:43.981Z,52.91
2023-05-16T02:53:12.321Z,52.85
2023-05-16T02:55:40.894Z,52.89
2023-05-16T02:58:09.329Z,52.89
2023-05-16T03:00:37.618Z,53.04
2023-05-16T03:03:06.289Z,53.15
2023-05-16T03:05:34.788Z,53.27
2023-05-16T03:08:04.430Z,53.44
2023-05-16T03:10:35.405Z,53.43
2023-05-16T03:13:03.659Z,53.53
2023-05-16T03:15:31.975Z,53.60
2023-05-16T03:18:00.844Z,53.56
2023-05-16T03:20:29.133Z,53.63
2023-05-16T03:22:58.094Z,53.69
2023-05-16T03:25:28.150Z,53.70
2023-05-16T03:27:56.841Z,53.70
2023-05-16T03:30:26.578Z,53.69
2023-05-16T03:32:54.964Z,53.65
2023-05-16T03:35:24.753Z,53.65
2023-05-16T03:37:53.124Z,53.56
2023-05-16T03:40:21.817Z,53.55
2023-05-16T03:42:51.583Z,53.66
2023-05-16T03:45:19.984Z,53.76
2023-05-16T03:47:49.933Z,53.75
2023-05-16T03:50:18.352Z,53.81
2023-05-16T03:52:46.607Z,53.84
2023-05-16T03:55:15.446Z,53.87
2023-05-16T03:57:44.136Z,53.84
2023-05-16T04:00:14.921Z,53.56
2023-05-16T04:02:44.020Z,53.65
2023-05-16T04:05:14.084Z,53.55
2023-05-16T04:07:43.011Z,53.68
2023-05-16T04:10:12.599Z,53.60
2023-05-16T04:12:40.809Z,53.56
2023-05-16T04:15:09.865Z,53.59
2023-05-16T04:17:40.237Z,53.50
2023-05-16T04:20:09.187Z,53.58
2023-05-16T04:22:37.521Z,53.75
2023-05-16T04:25:06.320Z,53.71
2023-05-16T04:27:34.601Z,53.74
2023-05-16T04:30:03.006Z,53.73
2023-05-16T04:32:34.690Z,53.72
2023-05-16T04:35:04.574Z,53.76
2023-05-16T04:37:32.918Z,53.85
2023-05-16T04:40:01.249Z,53.82
2023-05-16T04:42:29.552Z,53.83
2023-05-16T04:44:58.716Z,53.69
2023-05-16T04:47:27.032Z,53.54
2023-05-16T04:49:55.330Z,53.39
2023-05-16T04:52:25.104Z,53.33
2023-05-16T04:54:53.475Z,53.43
2023-05-16T04:57:21.812Z,53.41
2023-05-16T04:59:50.088Z,53.49
2023-05-16T05:02:18.372Z,53.56
2023-05-16T05:04:46.807Z,53.57
2023-05-16T05:07:15.237Z,53.57
2023-05-16T05:09:44.912Z,53.51
2023-05-16T05:12:13.284Z,53.55
2023-05-16T05:14:41.551Z,53.44
2023-05-16T05:17:09.877Z,53.12
2023-05-16T05:19:38.294Z,53.17
2023-05-16T05:22:07.010Z,53.16
2023-05-16T05:24:35.311Z,53.04
2023-05-16T05:27:05.113Z,52.57
2023-05-16T05:29:34.049Z,52.71
2023-05-16T05:32:02.435Z,52.22
2023-05-16T05:34:30.862Z,51.53
2023-05-16T05:36:59.148Z,51.44
2023-05-16T05:39:27.807Z,51.17
2023-05-16T05:41:56.181Z,50.34
2023-05-16T05:44:25.928Z,50.13
2023-05-16T05:46:54.426Z,49.65
2023-05-16T05:49:23.418Z,48.95
2023-05-16T05:51:52.377Z,48.08
2023-05-16T05:54:21.177Z,48.05
2023-05-16T05:56:49.525Z,47.74
2023-05-16T05:59:18.003Z,47.56
2023-05-16T06:01:47.684Z,47.31
2023-05-16T06:04:15.948Z,47.76
2023-05-16T06:06:44.208Z,47.17
2023-05-16T06:09:12.797Z,46.75
2023-05-16T06:11:41.309Z,45.58
2023-05-16T06:14:09.607Z,44.84
2023-05-16T06:16:39.513Z,45.05
2023-05-16T06:19:09.329Z,45.53
2023-05-16T06:21:38.025Z,45.66
2023-05-16T06:24:06.546Z,45.82
2023-05-16T06:26:35.096Z,44.51
2023-05-16T06:29:03.349Z,44.49
2023-05-16T06:31:32.417Z,44.23
2023-05-16T06:34:00.874Z,44.03
2023-05-16T06:36:31.196Z,43.22
2023-05-16T06:38:59.476Z,42.68
2023-05-16T06:41:27.833Z,43.35
2023-05-16T06:43:56.124Z,43.13
2023-05-16T06:46:24.747Z,42.95
2023-05-16T06:48:53.178Z,42.41
2023-05-16T06:51:21.474Z,42.19
2023-05-16T06:53:51.153Z,42.69
2023-05-16T06:56:19.539Z,42.45
2023-05-16T06:58:49.622Z,42.83
2023-05-16T07:01:18.073Z,43.48
2023-05-16T07:03:46.476Z,43.48
2023-05-16T07:06:14.891Z,42.64
2023-05-16T07:08:43.215Z,42.45
2023-05-16T07:11:12.935Z,41.79
2023-05-16T07:13:41.251Z,41.52
2023-05-16T07:16:09.584Z,41.04
2023-05-16T07:18:38.023Z,40.61
2023-05-16T07:21:06.749Z,40.18
2023-05-16T07:23:35.060Z,38.88
2023-05-16T07:26:03.499Z,37.75
2023-05-16T07:28:33.234Z,37.06
2023-05-16T07:31:01.537Z,37.27
2023-05-16T07:33:29.943Z,37.01
2023-05-16T07:36:11.956Z,37.37
2023-05-16T07:38:44.341Z,38.16
2023-05-16T07:41:12.732Z,38.64
2023-05-16T07:43:42.491Z,39.27
2023-05-16T07:46:11.629Z,37.37
2023-05-16T07:48:39.970Z,36.82
2023-05-16T07:51:08.779Z,36.76
2023-05-16T07:53:37.349Z,36.69
2023-05-16T07:56:06.910Z,35.90
2023-05-16T07:58:35.553Z,35.98
2023-05-16T08:01:05.769Z,35.43
2023-05-16T08:03:34.352Z,34.99
2023-05-16T08:06:02.970Z,33.69
2023-05-16T08:08:31.374Z,34.03
2023-05-16T08:10:59.729Z,32.51
2023-05-16T08:13:28.105Z,33.81
2023-05-16T08:15:56.472Z,31.96
2023-05-16T08:18:26.186Z,32.69
2023-05-16T08:20:54.538Z,33.27
2023-05-16T08:23:23.039Z,33.16
2023-05-16T08:25:51.392Z,33.07
2023-05-16T08:28:19.724Z,32.65
2023-05-16T08:30:48.192Z,32.30
2023-05-16T08:33:16.743Z,33.59
2023-05-16T08:35:46.716Z,34.44
2023-05-16T08:38:15.003Z,33.84
2023-05-16T08:40:45.215Z,34.30
2023-05-16T08:43:14.011Z,34.25
2023-05-16T08:45:42.939Z,33.95
2023-05-16T08:48:12.603Z,33.92
2023-05-16T08:50:42.892Z,33.45
2023-05-16T08:53:15.991Z,32.87
2023-05-16T08:55:47.001Z,34.01
2023-05-16T08:58:15.993Z,32.84
2023-05-16T09:00:44.911Z,32.83
2023-05-16T09:03:13.549Z,34.30
2023-05-16T09:05:42.505Z,35.39
2023-05-16T09:08:12.248Z,35.98
2023-05-16T09:10:40.580Z,36.13
2023-05-16T09:13:08.900Z,35.63
2023-05-16T09:15:37.296Z,34.32
2023-05-16T09:18:05.756Z,33.73
2023-05-16T09:20:34.249Z,33.25
2023-05-16T09:23:03.372Z,34.05
2023-05-16T09:25:33.183Z,33.55
2023-05-16T09:28:03.573Z,31.61
2023-05-16T09:30:34.271Z,32.76
2023-05-16T09:33:03.247Z,31.48
2023-05-16T09:38:04.142Z,31.65
2023-05-16T09:40:34.031Z,32.69
2023-05-16T09:43:07.990Z,34.69
2023-05-16T09:45:38.046Z,36.24
2023-05-16T09:48:08.375Z,34.33
2023-05-16T09:50:38.656Z,33.85
2023-05-16T09:53:07.223Z,32.37
2023-05-16T09:55:36.892Z,30.48
2023-05-16T09:58:06.899Z,30.42
2023-05-16T10:00:35.742Z,30.04
2023-05-16T10:03:05.851Z,30.34
2023-05-16T10:05:35.921Z,30.22
2023-05-16T10:08:05.588Z,29.95
2023-05-16T10:10:39.771Z,29.39
2023-05-16T10:13:09.933Z,28.90
2023-05-16T10:15:39.316Z,30.13
2023-05-16T10:18:13.251Z,30.13
2023-05-16T10:20:43.726Z,29.00
2023-05-16T10:23:17.691Z,29.39
2023-05-16T10:25:48.664Z,28.88
2023-05-16T10:28:17.890Z,28.94
2023-05-16T10:30:47.455Z,28.60
2023-05-16T10:33:19.827Z,28.81
2023-05-16T10:35:48.459Z,30.43
2023-05-16T10:38:19.660Z,30.90
2023-05-16T10:40:50.728Z,31.14
2023-05-16T10:43:26.959Z,30.72
2023-05-16T10:45:59.804Z,29.54
2023-05-16T10:48:32.802Z,32.04
2023-05-16T10:51:02.860Z,32.82
2023-05-16T10:53:32.692Z,35.68
2023-05-16T10:56:11.395Z,35.81
2023-05-16T10:58:48.242Z,36.09
2023-05-16T11:01:18.549Z,38.13
2023-05-16T11:04:07.431Z,40.11
2023-05-16T11:06:37.233Z,42.21
2023-05-16T11:09:19.332Z,43.58
2023-05-16T11:11:55.735Z,44.85
2023-05-16T11:14:25.615Z,46.13
2023-05-16T11:16:56.370Z,45.70
2023-05-16T11:19:33.402Z,43.64
2023-05-16T11:22:25.042Z,41.68
2023-05-16T11:24:57.226Z,40.37
2023-05-16T11:27:29.345Z,38.71
2023-05-16T11:30:03.714Z,37.32
2023-05-16T11:32:35.040Z,36.29
2023-05-16T11:35:04.721Z,36.74
2023-05-16T11:37:33.086Z,36.79
2023-05-16T11:40:02.303Z,34.80
2023-05-16T11:42:35.745Z,34.76
2023-05-16T11:45:08.863Z,34.01
2023-05-16T11:47:39.683Z,34.08
2023-05-16T11:50:10.083Z,32.52
2023-05-16T11:52:41.724Z,34.10
2023-05-16T11:55:11.529Z,36.63
2023-05-16T11:57:42.139Z,38.85
2023-05-16T12:00:17.850Z,40.37
2023-05-16T12:02:47.792Z,41.20
2023-05-16T12:05:17.407Z,43.74
2023-05-16T12:07:46.237Z,43.78
2023-05-16T12:10:15.968Z,41.26
2023-05-16T12:12:48.100Z,38.36
2023-05-16T12:15:17.355Z,37.81
2023-05-16T12:17:47.087Z,39.33
2023-05-16T12:20:16.828Z,37.67
2023-05-16T12:22:46.277Z,36.48
2023-05-16T12:25:26.941Z,35.16
2023-05-16T12:27:59.092Z,36.91
2023-05-16T12:30:29.483Z,36.82
2023-05-16T12:32:58.669Z,33.71
2023-05-16T12:35:27.395Z,33.08
2023-05-16T12:37:56.273Z,34.98
2023-05-16T12:40:25.097Z,34.44
2023-05-16T12:42:54.841Z,34.08
2023-05-16T12:45:25.072Z,33.57
2023-05-16T12:47:53.609Z,34.05
2023-05-16T12:50:23.139Z,31.63
2023-05-16T12:52:52.389Z,31.75
2023-05-16T12:55:21.921Z,31.03
2023-05-16T12:57:51.242Z,30.19
2023-05-16T13:00:21.837Z,30.89
2023-05-16T13:02:52.318Z,31.12
2023-05-16T13:05:23.470Z,29.88
2023-05-16T13:07:52.856Z,28.35
2023-05-16T13:10:21.351Z,28.61
2023-05-16T13:12:49.592Z,29.29
2023-05-16T13:15:18.172Z,30.00
2023-05-16T13:17:47.755Z,30.29
2023-05-16T13:20:17.538Z,31.09
2023-05-16T13:22:46.694Z,32.36
2023-05-16T13:25:15.027Z,32.41
2023-05-16T13:27:43.527Z,33.18
2023-05-16T13:30:12.383Z,32.90
2023-05-16T13:32:40.754Z,33.18
2023-05-16T13:35:09.830Z,33.49
2023-05-16T13:37:39.741Z,34.02
2023-05-16T13:40:10.709Z,33.94
2023-05-16T13:42:39.417Z,33.88
2023-05-16T13:45:08.490Z,34.57
2023-05-16T13:47:37.079Z,32.90
2023-05-16T13:50:10.256Z,31.49
2023-05-16T13:52:41.040Z,31.98
2023-05-16T13:55:09.994Z,32.12
2023-05-16T13:57:38.494Z,31.58
2023-05-16T14:02:44.510Z,30.19
2023-05-16T14:05:12.962Z,30.93
2023-05-16T14:07:44.726Z,30.33
2023-05-16T14:10:14.577Z,29.81
2023-05-16T14:12:42.940Z,31.96
2023-05-16T14:15:11.778Z,31.99
2023-05-16T14:17:40.248Z,33.05
2023-05-16T14:20:10.834Z,32.83
2023-05-16T14:22:39.728Z,32.99
2023-05-16T14:25:10.376Z,31.85
2023-05-16T14:27:38.829Z,31.34
2023-05-16T14:30:09.617Z,32.05
2023-05-16T14:32:38.154Z,33.06
2023-05-16T14:35:07.227Z,33.54
2023-05-16T14:37:35.614Z,34.04
2023-05-16T14:40:05.569Z,34.55
2023-05-16T14:42:35.293Z,35.86
2023-05-16T14:45:03.830Z,35.71
2023-05-16T14:47:32.302Z,35.60
2023-05-16T14:50:01.317Z,36.09
2023-05-16T14:52:29.929Z,36.66
2023-05-16T14:54:58.227Z,37.21
2023-05-16T14:57:26.571Z,37.50
2023-05-16T14:59:56.447Z,37.59
2023-05-16T15:02:24.705Z,38.19
2023-05-16T15:04:55.450Z,38.59
2023-05-16T15:07:23.824Z,38.43
2023-05-16T15:09:52.439Z,39.44
2023-05-16T15:12:20.781Z,40.44
2023-05-16T15:14:49.075Z,40.74
2023-05-16T15:17:18.762Z,41.16
2023-05-16T15:19:47.980Z,40.62
2023-05-16T15:22:16.289Z,37.83
2023-05-16T15:24:44.645Z,35.23
2023-05-16T15:27:13.025Z,34.28
2023-05-16T15:29:41.410Z,33.73
2023-05-16T15:32:11.399Z,33.71
2023-05-16T15:34:41.254Z,31.88
2023-05-16T15:37:09.579Z,31.54
2023-05-16T15:39:38.287Z,31.94
2023-05-16T15:42:11.078Z,33.03
2023-05-16T15:44:40.166Z,33.16
2023-05-16T15:47:08.916Z,33.13
2023-05-16T15:49:37.908Z,33.48
2023-05-16T15:52:08.214Z,33.41
2023-05-16T15:54:37.980Z,33.02
2023-05-16T15:57:07.037Z,33.99
2023-05-16T15:59:35.857Z,34.63
2023-05-16T16:02:05.603Z,35.55
2023-05-16T16:04:34.119Z,36.46
2023-05-16T16:07:02.486Z,37.01
2023-05-16T16:09:32.503Z,36.85
2023-05-16T16:12:01.265Z,36.61
2023-05-16T16:14:30.219Z,36.69
2023-05-16T16:16:58.591Z,36.93
2023-05-16T16:19:27.052Z,36.80
2023-05-16T16:21:55.518Z,36.38
2023-05-16T16:24:23.842Z,36.65
2023-05-16T16:26:53.710Z,36.29
2023-05-16T16:29:22.071Z,35.97
2023-05-16T16:31:50.673Z,36.30
2023-05-16T16:34:20.343Z,36.51
2023-05-16T16:36:50.733Z,36.42
2023-05-16T16:39:19.128Z,36.84
2023-05-16T16:41:47.453Z,36.52
2023-05-16T16:44:17.172Z,36.38
2023-05-16T16:46:45.813Z,37.29
2023-05-16T16:49:14.183Z,37.00
2023-05-16T16:51:42.788Z,37.70
2023-05-16T16:54:11.194Z,38.00
2023-05-16T16:56:39.518Z,37.77
2023-05-16T16:59:07.906Z,37.40
2023-05-16T17:01:37.693Z,37.56
2023-05-16T17:04:06.413Z,38.48
2023-05-16T17:06:35.094Z,38.69
2023-05-16T17:09:06.510Z,38.84
2023-05-16T17:11:36.416Z,39.23
2023-05-16T17:14:06.340Z,39.64
2023-05-16T17:16:35.262Z,40.70
2023-05-16T17:19:05.542Z,41.71
2023-05-16T17:21:34.774Z,42.65
2023-05-16T17:24:03.695Z,43.80
2023-05-16T17:26:32.113Z,44.22
2023-05-16T17:29:01.292Z,45.03
2023-05-16T17:31:29.711Z,46.38
2023-05-16T17:33:58.083Z,46.14
2023-05-16T17:36:27.847Z,46.64
2023-05-16T17:38:56.315Z,46.33
2023-05-16T17:41:24.727Z,45.90
2023-05-16T17:43:53.565Z,45.76
2023-05-16T17:46:21.908Z,45.79
2023-05-16T17:48:50.362Z,45.60
2023-05-16T17:51:21.398Z,44.90
2023-05-16T17:53:51.711Z,44.85
2023-05-16T17:56:20.180Z,44.80
2023-05-16T17:58:48.481Z,43.79
2023-05-16T18:01:17.340Z,43.47
2023-05-16T18:03:45.813Z,43.52
2023-05-16T18:06:14.256Z,43.62
2023-05-16T18:08:42.681Z,43.26
2023-05-16T18:11:12.442Z,43.13
2023-05-16T18:13:40.848Z,43.40
2023-05-16T18:16:12.931Z,43.35
2023-05-16T18:18:41.722Z,43.33
2023-05-16T18:21:10.216Z,43.57
2023-05-16T18:23:38.582Z,43.66
2023-05-16T18:26:06.897Z,43.75
2023-05-16T18:28:36.649Z,43.82
2023-05-16T18:31:05.159Z,43.84
2023-05-16T18:33:33.449Z,43.68
2023-05-16T18:36:01.735Z,43.82
2023-05-16T18:38:33.126Z,43.59
2023-05-16T18:41:02.460Z,43.90
2023-05-16T18:43:31.043Z,43.97
2023-05-16T18:46:00.751Z,44.05
2023-05-16T18:48:29.310Z,44.11
2023-05-16T18:50:57.723Z,44.13
2023-05-16T18:53:26.237Z,44.45
2023-05-16T18:55:54.686Z,44.28
2023-05-16T18:58:23.089Z,44.40
2023-05-16T19:00:51.713Z,44.76
2023-05-16T19:03:21.913Z,45.12
2023-05-16T19:05:50.589Z,45.14
2023-05-16T19:08:19.052Z,45.17
2023-05-16T19:10:47.454Z,45.11
2023-05-16T19:13:15.837Z,45.24
2023-05-16T19:15:44.528Z,45.42
2023-05-16T19:18:13.245Z,45.40
2023-05-16T19:20:44.975Z,45.47
2023-05-16T19:23:14.164Z,45.77
2023-05-16T19:25:47.377Z,45.92
2023-05-16T19:28:16.540Z,46.17
2023-05-16T19:30:45.080Z,46.50
2023-05-16T19:33:13.476Z,46.26
2023-05-16T19:35:43.297Z,46.03
2023-05-16T19:38:11.592Z,46.08
2023-05-16T19:40:39.954Z,46.57
2023-05-16T19:43:08.280Z,46.52
2023-05-16T19:45:36.666Z,46.78
2023-05-16T19:48:05.448Z,46.69
2023-05-16T19:50:33.919Z,46.46
2023-05-16T19:53:04.180Z,46.61
2023-05-16T19:55:33.996Z,46.62
2023-05-16T19:58:03.485Z,46.56
2023-05-16T20:00:31.852Z,46.52
2023-05-16T20:03:00.364Z,46.54
2023-05-16T20:05:29.076Z,46.52
2023-05-16T20:07:58.189Z,46.67
2023-05-16T20:10:27.914Z,46.64
2023-05-16T20:12:56.203Z,46.73
2023-05-16T20:15:24.942Z,46.84
2023-05-16T20:17:53.410Z,46.70
2023-05-16T20:20:22.065Z,46.90
2023-05-16T20:22:50.345Z,47.17
2023-05-16T20:25:18.721Z,47.19
2023-05-16T20:27:48.511Z,47.45
2023-05-16T20:30:16.850Z,47.38
2023-05-16T20:32:45.257Z,47.68
2023-05-16T20:35:14.897Z,48.12
2023-05-16T20:37:43.268Z,48.26
2023-05-16T20:40:12.112Z,48.92
2023-05-16T20:42:40.630Z,49.66
2023-05-16T20:45:11.564Z,49.27
2023-05-16T20:47:40.028Z,49.53
2023-05-16T20:50:09.493Z,49.82
2023-05-16T20:52:37.779Z,49.66
2023-05-16T20:55:06.904Z,49.70
2023-05-16T20:57:35.308Z,49.66
2023-05-16T21:00:04.652Z,49.53
2023-05-16T21:02:34.725Z,49.27
2023-05-16T21:05:19.655Z,49.02
2023-05-16T21:07:54.016Z,49.45
2023-05-16T21:10:22.834Z,49.36
2023-05-16T21:12:51.594Z,49.52
2023-05-16T21:15:23.204Z,49.35
2023-05-16T21:17:53.748Z,49.29
2023-05-16T21:20:22.073Z,49.51
2023-05-16T21:22:50.492Z,49.63
2023-05-16T21:25:19.334Z,49.61
2023-05-16T21:27:47.640Z,49.74
2023-05-16T21:30:16.335Z,49.69
2023-05-16T21:32:44.683Z,49.69
2023-05-16T21:35:14.423Z,49.80
2023-05-16T21:37:42.743Z,50.20
2023-05-16T21:40:14.768Z,50.33
2023-05-16T21:42:43.066Z,50.40
2023-05-16T21:45:15.870Z,50.56
2023-05-16T21:47:44.293Z,50.52
2023-05-16T21:50:14.336Z,50.32
2023-05-16T21:52:42.900Z,50.36
2023-05-16T21:55:11.696Z,50.48
2023-05-16T21:57:40.053Z,50.29
2023-05-16T22:00:09.987Z,50.08
2023-05-16T22:02:38.746Z,50.28
2023-05-16T22:05:08.130Z,50.04
2023-05-16T22:07:38.314Z,49.97
2023-05-16T22:10:07.908Z,50.03
2023-05-16T22:12:36.238Z,49.93
2023-05-16T22:15:04.995Z,49.98
2023-05-16T22:17:33.321Z,50.03
2023-05-16T22:20:02.621Z,49.95
2023-05-16T22:22:31.040Z,50.03
2023-05-16T22:25:01.251Z,49.75
2023-05-16T22:27:29.580Z,49.71
2023-05-16T22:29:57.927Z,49.63
2023-05-16T22:32:26.345Z,49.72
2023-05-16T22:34:54.624Z,49.86
2023-05-16T22:37:22.682Z,49.82
2023-05-16T22:39:51.383Z,49.82
2023-05-16T22:42:20.844Z,50.02
2023-05-16T22:44:48.885Z,49.73
2023-05-16T22:47:16.944Z,49.49
2023-05-16T22:49:45.040Z,48.97
2023-05-16T22:52:13.076Z,48.86
2023-05-16T22:54:42.103Z,48.40
2023-05-16T22:57:10.190Z,48.14
2023-05-16T22:59:39.681Z,47.99
2023-05-16T23:02:07.758Z,47.93
2023-05-16T23:04:35.862Z,47.75
2023-05-16T23:07:03.984Z,47.59
2023-05-16T23:09:32.080Z,47.56
2023-05-16T23:12:00.277Z,47.50
2023-05-16T23:14:28.448Z,47.43
2023-05-16T23:16:57.898Z,47.47
2023-05-16T23:19:26.231Z,47.53
2023-05-16T23:21:54.351Z,47.59
2023-05-16T23:24:22.717Z,47.61
2023-05-16T23:26:50.853Z,47.40
2023-05-16T23:29:18.945Z,47.23
2023-05-16T23:31:47.419Z,47.13
2023-05-16T23:34:16.843Z,47.12
2023-05-16T23:36:44.956Z,47.16
2023-05-16T23:39:13.086Z,47.23
2023-05-16T23:41:41.167Z,47.08
2023-05-16T23:44:09.209Z,47.22
2023-05-16T23:46:37.258Z,47.14
2023-05-16T23:49:05.343Z,47.09
2023-05-16T23:51:45.319Z,47.14
2023-05-16T23:54:22.811Z,47.27
2023-05-16T23:56:51.093Z,47.28
2023-05-16T23:59:19.957Z,47.25
